Back to Top

Language: 

My Weather Underground Personal Weather Station Historical Data with Graphs...

Delerius Weather Station Historical Data
Daily Summary for October 29, 2017 Units:  English    Metric   Both
« Previous Day
Next Day »
Daily Weekly Monthly Yearly Custom
  High: Low: Average:
Temperature: 58.1 °F 39.4 °F 48.7 °F
Dew Point: 54.1 °F 34.3 °F 40.9 °F
Humidity: 88 % 60 % 75 %
Wind Speed: 21.0 mph 0.0 mph 6 mph
Wind Gust: 40.0 mph - -
Wind:- - WSW
Pressure: 30.42 in 29.97 in -
Precipitation: 0.00 in    
Historical Graphs
 
 
Tabular Data for October 29, 2017
Time Temperature Dew Point Pressure Wind Wind Speed Wind Gust Humidity Rainfall Rate (Hourly) solar Conditions
00:04 57.2 °F 53.7 °F 30.00 in WNW 20.0 mph 30.0 mph 88 % 0.00 in 0 W/m2
00:09 57.4 °F 53.9 °F 29.99 in WNW 15.0 mph 23.0 mph 88 % 0.00 in 0 W/m2
00:14 57.4 °F 53.9 °F 29.99 in WNW 19.0 mph 31.0 mph 88 % 0.00 in 0 W/m2
00:19 57.4 °F 53.9 °F 29.99 in West 14.0 mph 23.0 mph 88 % 0.00 in 0 W/m2
00:24 57.4 °F 53.9 °F 29.99 in West 15.0 mph 24.0 mph 88 % 0.00 in 0 W/m2
00:29 57.4 °F 53.9 °F 29.99 in West 14.0 mph 24.0 mph 88 % 0.00 in 0 W/m2
00:34 57.4 °F 53.9 °F 29.99 in West 15.0 mph 23.0 mph 88 % 0.00 in 0 W/m2
00:39 57.4 °F 53.9 °F 29.98 in West 17.0 mph 24.0 mph 88 % 0.00 in 0 W/m2
00:44 57.6 °F 54.0 °F 29.98 in West 18.0 mph 37.0 mph 88 % 0.00 in 0 W/m2
00:49 57.6 °F 54.0 °F 29.98 in West 15.0 mph 25.0 mph 88 % 0.00 in 0 W/m2
00:54 57.6 °F 53.7 °F 29.98 in West 15.0 mph 25.0 mph 87 % 0.00 in 0 W/m2
00:59 57.7 °F 53.9 °F 29.98 in West 19.0 mph 31.0 mph 87 % 0.00 in 0 W/m2
01:04 57.7 °F 53.9 °F 29.98 in WNW 20.0 mph 40.0 mph 87 % 0.00 in 0 W/m2
01:09 57.9 °F 54.1 °F 29.98 in WNW 17.0 mph 26.0 mph 87 % 0.00 in 0 W/m2
01:14 57.9 °F 54.1 °F 29.98 in WNW 19.0 mph 28.0 mph 87 % 0.00 in 0 W/m2
01:19 57.9 °F 54.1 °F 29.98 in WNW 21.0 mph 32.0 mph 87 % 0.00 in 0 W/m2
01:24 57.9 °F 54.1 °F 29.98 in WNW 18.0 mph 27.0 mph 87 % 0.00 in 0 W/m2
01:29 57.9 °F 54.1 °F 29.97 in WNW 18.0 mph 30.0 mph 87 % 0.00 in 0 W/m2
01:34 57.9 °F 54.1 °F 29.97 in WNW 18.0 mph 26.0 mph 87 % 0.00 in 0 W/m2
01:39 57.9 °F 53.8 °F 29.98 in WNW 17.0 mph 28.0 mph 86 % 0.00 in 0 W/m2
01:44 58.1 °F 53.9 °F 29.98 in WNW 16.0 mph 25.0 mph 86 % 0.00 in 0 W/m2
01:49 58.1 °F 53.9 °F 29.98 in WNW 18.0 mph 28.0 mph 86 % 0.00 in 0 W/m2
01:54 58.1 °F 53.9 °F 29.98 in WNW 19.0 mph 31.0 mph 86 % 0.00 in 0 W/m2
01:00 57.9 °F 53.8 °F 29.98 in WNW 17.0 mph 34.0 mph 86 % 0.00 in 0 W/m2
01:05 57.9 °F 53.8 °F 29.97 in WNW 15.0 mph 25.0 mph 86 % 0.00 in 0 W/m2
01:10 57.7 °F 53.3 °F 29.97 in WNW 17.0 mph 26.0 mph 85 % 0.00 in 0 W/m2
01:15 57.7 °F 52.9 °F 29.98 in WNW 13.0 mph 22.0 mph 84 % 0.00 in 0 W/m2
01:20 57.7 °F 52.9 °F 29.99 in NW 13.0 mph 22.0 mph 84 % 0.00 in 0 W/m2
01:25 57.7 °F 52.9 °F 29.99 in WNW 11.0 mph 18.0 mph 84 % 0.00 in 0 W/m2
01:30 57.7 °F 53.3 °F 29.99 in NW 9.0 mph 16.0 mph 85 % 0.00 in 0 W/m2
01:35 57.6 °F 53.1 °F 29.99 in WNW 13.0 mph 24.0 mph 85 % 0.00 in 0 W/m2
01:40 57.6 °F 53.4 °F 29.99 in WNW 12.0 mph 20.0 mph 86 % 0.00 in 0 W/m2
01:45 57.6 °F 53.4 °F 29.99 in WNW 13.0 mph 21.0 mph 86 % 0.00 in 0 W/m2
01:50 57.4 °F 53.2 °F 29.99 in WNW 16.0 mph 25.0 mph 86 % 0.00 in 0 W/m2
01:55 57.0 °F 52.6 °F 29.99 in WNW 16.0 mph 26.0 mph 85 % 0.00 in 0 W/m2
02:00 56.8 °F 52.1 °F 29.99 in WNW 14.0 mph 25.0 mph 84 % 0.00 in 0 W/m2
02:05 56.7 °F 51.6 °F 30.00 in NW 17.0 mph 35.0 mph 83 % 0.00 in 0 W/m2
02:10 56.7 °F 51.2 °F 30.00 in WNW 16.0 mph 26.0 mph 82 % 0.00 in 0 W/m2
02:15 56.5 °F 51.1 °F 30.01 in NW 15.0 mph 23.0 mph 82 % 0.00 in 0 W/m2
02:20 56.3 °F 50.9 °F 30.01 in WNW 12.0 mph 22.0 mph 82 % 0.00 in 0 W/m2
02:25 56.3 °F 50.9 °F 30.01 in WNW 14.0 mph 22.0 mph 82 % 0.00 in 0 W/m2
02:30 56.1 °F 50.7 °F 30.01 in WNW 14.0 mph 24.0 mph 82 % 0.00 in 0 W/m2
02:35 56.1 °F 50.7 °F 30.02 in NW 12.0 mph 19.0 mph 82 % 0.00 in 0 W/m2
02:40 56.1 °F 50.7 °F 30.02 in NW 9.0 mph 18.0 mph 82 % 0.00 in 0 W/m2
02:45 55.9 °F 50.2 °F 30.01 in NW 13.0 mph 20.0 mph 81 % 0.00 in 0 W/m2
09:33 49.5 °F 40.1 °F 30.24 in NNW 9.0 mph 9.0 mph 70 % 0.00 in 81 W/m2
09:34 49.3 °F 39.9 °F 30.24 in North 6.0 mph 9.0 mph 70 % 0.00 in 77 W/m2
09:39 49.3 °F 39.9 °F 30.24 in North 6.0 mph 9.0 mph 70 % 0.00 in 91 W/m2
09:44 49.5 °F 40.4 °F 30.24 in NNW 6.0 mph 10.0 mph 71 % 0.00 in 130 W/m2
09:49 49.6 °F 40.6 °F 30.25 in NNW 5.0 mph 11.0 mph 71 % 0.00 in 128 W/m2
09:54 49.6 °F 40.3 °F 30.25 in North 6.0 mph 10.0 mph 70 % 0.00 in 274 W/m2
09:55 49.6 °F 40.3 °F 30.25 in North 6.0 mph 10.0 mph 70 % 0.00 in 318 W/m2
10:00 50.0 °F 40.6 °F 30.25 in North 4.0 mph 12.0 mph 70 % 0.00 in 341 W/m2
10:05 50.4 °F 40.9 °F 30.25 in North 3.0 mph 9.0 mph 70 % 0.00 in 330 W/m2
10:10 50.7 °F 40.5 °F 30.25 in North 7.0 mph 12.0 mph 68 % 0.00 in 355 W/m2
10:16 51.1 °F 40.5 °F 30.25 in NNW 8.0 mph 12.0 mph 67 % 0.00 in 311 W/m2
10:20 51.1 °F 40.1 °F 30.26 in North 8.0 mph 13.0 mph 66 % 0.00 in 364 W/m2
10:25 51.3 °F 39.9 °F 30.26 in North 6.0 mph 11.0 mph 65 % 0.00 in 373 W/m2
10:30 51.4 °F 39.7 °F 30.26 in North 7.0 mph 15.0 mph 64 % 0.00 in 369 W/m2
10:36 51.4 °F 39.7 °F 30.26 in NNW 5.0 mph 10.0 mph 64 % 0.00 in 385 W/m2
10:41 51.6 °F 39.8 °F 30.26 in NNW 6.0 mph 12.0 mph 64 % 0.00 in 390 W/m2
10:46 51.6 °F 39.8 °F 30.27 in NNE 4.0 mph 8.0 mph 64 % 0.00 in 394 W/m2
10:51 51.8 °F 40.0 °F 30.26 in North 5.0 mph 13.0 mph 64 % 0.00 in 397 W/m2
10:52 52.0 °F 40.2 °F 30.26 in North 5.0 mph 13.0 mph 64 % 0.00 in 403 W/m2
10:57 52.3 °F 40.5 °F 30.27 in NNW 2.0 mph 8.0 mph 64 % 0.00 in 406 W/m2
11:02 52.2 °F 39.5 °F 30.27 in NNE 10.0 mph 16.0 mph 62 % 0.00 in 410 W/m2
11:07 52.0 °F 39.4 °F 30.27 in NNE 9.0 mph 19.0 mph 62 % 0.00 in 417 W/m2
11:12 51.6 °F 39.4 °F 30.27 in North 8.0 mph 14.0 mph 63 % 0.00 in 418 W/m2
11:17 51.8 °F 40.4 °F 30.27 in NNW 4.0 mph 9.0 mph 65 % 0.00 in 424 W/m2
11:22 52.2 °F 40.3 °F 30.27 in NNW 8.0 mph 15.0 mph 64 % 0.00 in 471 W/m2
11:27 52.2 °F 39.9 °F 30.27 in North 7.0 mph 11.0 mph 63 % 0.00 in 197 W/m2
11:32 51.8 °F 39.6 °F 30.27 in NNE 8.0 mph 14.0 mph 63 % 0.00 in 443 W/m2
11:37 51.6 °F 39.0 °F 30.28 in North 8.0 mph 15.0 mph 62 % 0.00 in 432 W/m2
11:42 51.8 °F 39.6 °F 30.27 in North 6.0 mph 11.0 mph 63 % 0.00 in 436 W/m2
11:47 52.0 °F 39.4 °F 30.28 in North 7.0 mph 12.0 mph 62 % 0.00 in 427 W/m2
11:52 52.0 °F 38.9 °F 30.28 in NNE 8.0 mph 14.0 mph 61 % 0.00 in 438 W/m2
11:57 52.0 °F 39.4 °F 30.28 in NNW 6.0 mph 15.0 mph 62 % 0.00 in 429 W/m2
12:02 52.0 °F 38.9 °F 30.28 in NNW 6.0 mph 14.0 mph 61 % 0.00 in 427 W/m2
12:07 52.3 °F 39.7 °F 30.28 in North 5.0 mph 10.0 mph 62 % 0.00 in 431 W/m2
12:12 52.3 °F 39.3 °F 30.28 in NNE 7.0 mph 13.0 mph 61 % 0.00 in 434 W/m2
12:17 52.3 °F 39.7 °F 30.28 in North 6.0 mph 12.0 mph 62 % 0.00 in 439 W/m2
12:22 52.5 °F 39.5 °F 30.28 in NNE 6.0 mph 9.0 mph 61 % 0.00 in 459 W/m2
12:27 52.3 °F 38.9 °F 30.28 in NNE 9.0 mph 14.0 mph 60 % 0.00 in 100 W/m2
12:32 51.8 °F 38.8 °F 30.28 in North 5.0 mph 12.0 mph 61 % 0.00 in 93 W/m2
12:37 51.6 °F 39.0 °F 30.28 in NNE 7.0 mph 13.0 mph 62 % 0.00 in 427 W/m2
12:42 51.8 °F 39.6 °F 30.28 in NNW 7.0 mph 11.0 mph 63 % 0.00 in 431 W/m2
12:48 52.2 °F 39.9 °F 30.28 in NNE 7.0 mph 13.0 mph 63 % 0.00 in 504 W/m2
12:53 52.3 °F 39.7 °F 30.28 in North 6.0 mph 14.0 mph 62 % 0.00 in 76 W/m2
12:58 51.8 °F 38.8 °F 30.28 in NNE 8.0 mph 13.0 mph 61 % 0.00 in 98 W/m2
13:03 51.4 °F 39.3 °F 30.28 in NNE 8.0 mph 12.0 mph 63 % 0.00 in 390 W/m2
13:08 51.6 °F 39.8 °F 30.28 in NNW 2.0 mph 7.0 mph 64 % 0.00 in 378 W/m2
13:13 52.0 °F 39.4 °F 30.29 in NNE 7.0 mph 12.0 mph 62 % 0.00 in 371 W/m2
13:18 52.3 °F 40.1 °F 30.29 in NW 5.0 mph 8.0 mph 63 % 0.00 in 367 W/m2
13:23 52.5 °F 39.5 °F 30.29 in NNW 5.0 mph 9.0 mph 61 % 0.00 in 367 W/m2
13:28 52.3 °F 38.9 °F 30.29 in NNE 8.0 mph 11.0 mph 60 % 0.00 in 359 W/m2
13:33 52.2 °F 39.1 °F 30.29 in North 6.0 mph 10.0 mph 61 % 0.00 in 357 W/m2
13:38 52.2 °F 39.1 °F 30.29 in North 8.0 mph 11.0 mph 61 % 0.00 in 357 W/m2
13:43 52.2 °F 39.5 °F 30.29 in North 7.0 mph 11.0 mph 62 % 0.00 in 383 W/m2
13:46 52.3 °F 39.7 °F 30.29 in NNE 3.0 mph 7.0 mph 62 % 0.00 in 410 W/m2
13:51 52.7 °F 40.0 °F 30.29 in North 7.0 mph 11.0 mph 62 % 0.00 in 390 W/m2
13:56 52.9 °F 39.8 °F 30.29 in ESE 1.0 mph 4.0 mph 61 % 0.00 in 374 W/m2
14:01 53.2 °F 39.7 °F 30.30 in NNE 6.0 mph 13.0 mph 60 % 0.00 in 318 W/m2
14:19 52.2 °F 39.5 °F 30.30 in NE 10.0 mph 19.0 mph 62 % 0.00 in 288 W/m2
14:25 51.6 °F 39.4 °F 30.30 in NNE 5.0 mph 12.0 mph 63 % 0.00 in 258 W/m2
14:31 51.8 °F 40.0 °F 30.30 in NNE 4.0 mph 11.0 mph 64 % 0.00 in 257 W/m2
14:37 52.0 °F 40.2 °F 30.30 in North 6.0 mph 10.0 mph 64 % 0.00 in 281 W/m2
14:42 52.0 °F 39.4 °F 30.30 in North 8.0 mph 13.0 mph 62 % 0.00 in 229 W/m2
14:48 51.6 °F 39.4 °F 30.30 in NNE 5.0 mph 12.0 mph 63 % 0.00 in 47 W/m2
14:53 51.3 °F 39.5 °F 30.31 in NNE 6.0 mph 12.0 mph 64 % 0.00 in 199 W/m2
14:58 51.1 °F 39.7 °F 30.31 in North 4.0 mph 7.0 mph 65 % 0.00 in 121 W/m2
15:03 50.9 °F 39.5 °F 30.31 in NNW 6.0 mph 11.0 mph 65 % 0.00 in 179 W/m2
15:08 50.5 °F 39.2 °F 30.31 in NNW 4.0 mph 8.0 mph 65 % 0.00 in 148 W/m2
15:09 50.5 °F 39.2 °F 30.31 in NNW 5.0 mph 9.0 mph 65 % 0.00 in 148 W/m2
15:14 50.4 °F 39.0 °F 30.31 in North 4.0 mph 8.0 mph 65 % 0.00 in 35 W/m2
15:19 50.2 °F 39.3 °F 30.32 in NNW 1.0 mph 3.0 mph 66 % 0.00 in 40 W/m2
15:24 49.8 °F 38.9 °F 30.31 in NNE 8.0 mph 11.0 mph 66 % 0.00 in 26 W/m2
15:31 49.5 °F 38.6 °F 30.31 in North 4.0 mph 9.0 mph 66 % 0.00 in 28 W/m2
15:36 49.5 °F 39.0 °F 30.32 in Calm   1.0 mph 67 % 0.00 in 32 W/m2
15:41 49.3 °F 38.4 °F 30.32 in North 2.0 mph 6.0 mph 66 % 0.00 in 37 W/m2
15:47 49.1 °F 38.6 °F 30.32 in Calm   2.0 mph 67 % 0.00 in 46 W/m2
15:52 49.1 °F 39.0 °F 30.32 in NNE 1.0 mph 6.0 mph 68 % 0.00 in 53 W/m2
15:57 48.9 °F 38.8 °F 30.32 in North 3.0 mph 7.0 mph 68 % 0.00 in 47 W/m2
16:03 48.9 °F 38.8 °F 30.32 in NNE 5.0 mph 7.0 mph 68 % 0.00 in 39 W/m2
16:08 48.7 °F 39.0 °F 30.33 in NNE 2.0 mph 4.0 mph 69 % 0.00 in 32 W/m2
16:13 48.6 °F 38.8 °F 30.33 in NNE 3.0 mph 9.0 mph 69 % 0.00 in 26 W/m2
16:18 48.4 °F 38.3 °F 30.33 in NNE 4.0 mph 8.0 mph 68 % 0.00 in 25 W/m2
16:20 48.4 °F 38.3 °F 30.33 in North 5.0 mph 8.0 mph 68 % 0.00 in 23 W/m2
16:25 48.2 °F 38.5 °F 30.33 in NNE 2.0 mph 5.0 mph 69 % 0.00 in 19 W/m2
16:30 48.0 °F 38.3 °F 30.33 in NNW 2.0 mph 7.0 mph 69 % 0.00 in 14 W/m2
16:35 47.8 °F 38.2 °F 30.33 in North 3.0 mph 8.0 mph 69 % 0.00 in 11 W/m2
16:40 47.7 °F 38.4 °F 30.33 in NNW 1.0 mph 7.0 mph 70 % 0.00 in 7 W/m2
16:45 47.5 °F 38.2 °F 30.33 in North 1.0 mph 4.0 mph 70 % 0.00 in 5 W/m2
16:50 47.1 °F 37.8 °F 30.33 in North 4.0 mph 7.0 mph 70 % 0.00 in 0 W/m2
16:55 46.9 °F 38.0 °F 30.33 in North 3.0 mph 7.0 mph 71 % 0.00 in 0 W/m2
16:56 46.9 °F 38.0 °F 30.33 in NNW 2.0 mph 5.0 mph 71 % 0.00 in 0 W/m2
17:01 46.8 °F 37.9 °F 30.34 in NNE 1.0 mph 5.0 mph 71 % 0.00 in 0 W/m2
17:11 46.6 °F 38.0 °F 30.34 in Calm   1.0 mph 72 % 0.00 in 0 W/m2
17:16 46.2 °F 37.7 °F 30.34 in North 1.0 mph 5.0 mph 72 % 0.00 in 0 W/m2
17:21 46.0 °F 37.9 °F 30.35 in North 1.0 mph 4.0 mph 73 % 0.00 in 0 W/m2
17:26 45.9 °F 37.7 °F 30.35 in NNW 1.0 mph 3.0 mph 73 % 0.00 in 0 W/m2
17:31 45.9 °F 37.7 °F 30.35 in Calm   1.0 mph 73 % 0.00 in 0 W/m2
17:36 45.7 °F 37.5 °F 30.36 in Calm     73 % 0.00 in 0 W/m2
17:41 45.3 °F 37.5 °F 30.36 in NNW 1.0 mph 2.0 mph 74 % 0.00 in 0 W/m2
17:46 45.1 °F 37.3 °F 30.36 in Calm   1.0 mph 74 % 0.00 in 0 W/m2
17:51 45.0 °F 37.5 °F 30.36 in NNW 1.0 mph 2.0 mph 75 % 0.00 in 0 W/m2
17:56 44.6 °F 37.2 °F 30.36 in Calm   1.0 mph 75 % 0.00 in 0 W/m2
18:01 44.2 °F 36.8 °F 30.36 in NNW 1.0 mph 2.0 mph 75 % 0.00 in 0 W/m2
18:06 43.9 °F 36.8 °F 30.37 in NW 1.0 mph 2.0 mph 76 % 0.00 in 0 W/m2
18:11 43.5 °F 36.8 °F 30.37 in NW 1.0 mph 2.0 mph 77 % 0.00 in 0 W/m2
18:16 43.3 °F 36.6 °F 30.37 in NW 1.0 mph 2.0 mph 77 % 0.00 in 0 W/m2
18:21 43.2 °F 36.8 °F 30.37 in NW 1.0 mph 5.0 mph 78 % 0.00 in 0 W/m2
18:26 43.2 °F 36.8 °F 30.37 in NW 1.0 mph 2.0 mph 78 % 0.00 in 0 W/m2
18:31 43.0 °F 36.6 °F 30.37 in NW 1.0 mph 3.0 mph 78 % 0.00 in 0 W/m2
18:36 43.0 °F 36.9 °F 30.37 in Calm   1.0 mph 79 % 0.00 in 0 W/m2
18:41 42.6 °F 36.2 °F 30.37 in NW 1.0 mph 4.0 mph 78 % 0.00 in 0 W/m2
18:46 42.6 °F 36.6 °F 30.37 in NW 2.0 mph 5.0 mph 79 % 0.00 in 0 W/m2
18:51 42.4 °F 36.4 °F 30.37 in NW 2.0 mph 5.0 mph 79 % 0.00 in 0 W/m2
18:56 42.4 °F 36.4 °F 30.37 in NW 2.0 mph 4.0 mph 79 % 0.00 in 0 W/m2
19:01 42.3 °F 36.2 °F 30.38 in NW 1.0 mph 4.0 mph 79 % 0.00 in 0 W/m2
19:06 42.3 °F 36.2 °F 30.38 in NW 3.0 mph 5.0 mph 79 % 0.00 in 0 W/m2
19:11 42.1 °F 36.4 °F 30.38 in NW 2.0 mph 4.0 mph 80 % 0.00 in 0 W/m2
19:16 42.1 °F 36.4 °F 30.38 in NW 1.0 mph 2.0 mph 80 % 0.00 in 0 W/m2
19:21 42.1 °F 36.4 °F 30.38 in NW 3.0 mph 5.0 mph 80 % 0.00 in 0 W/m2
19:26 42.1 °F 36.4 °F 30.38 in NW 2.0 mph 5.0 mph 80 % 0.00 in 0 W/m2
19:31 42.1 °F 36.0 °F 30.38 in NW 2.0 mph 5.0 mph 79 % 0.00 in 0 W/m2
19:36 42.1 °F 36.4 °F 30.38 in WNW 2.0 mph 5.0 mph 80 % 0.00 in 0 W/m2
19:41 42.1 °F 36.0 °F 30.39 in WNW 2.0 mph 6.0 mph 79 % 0.00 in 0 W/m2
19:46 41.9 °F 35.9 °F 30.39 in NW 2.0 mph 4.0 mph 79 % 0.00 in 0 W/m2
19:51 41.9 °F 36.2 °F 30.39 in NW 4.0 mph 6.0 mph 80 % 0.00 in 0 W/m2
19:56 41.9 °F 35.9 °F 30.39 in NW 2.0 mph 6.0 mph 79 % 0.00 in 0 W/m2
20:01 41.9 °F 35.9 °F 30.39 in NW 1.0 mph 5.0 mph 79 % 0.00 in 0 W/m2
20:06 41.9 °F 35.9 °F 30.39 in NW 2.0 mph 5.0 mph 79 % 0.00 in 0 W/m2
20:11 41.7 °F 35.7 °F 30.40 in NW 2.0 mph 5.0 mph 79 % 0.00 in 0 W/m2
20:16 41.5 °F 35.8 °F 30.40 in NW 1.0 mph 5.0 mph 80 % 0.00 in 0 W/m2
20:22 41.5 °F 35.8 °F 30.40 in NW 2.0 mph 6.0 mph 80 % 0.00 in 0 W/m2
20:27 41.4 °F 35.7 °F 30.40 in NW 2.0 mph 5.0 mph 80 % 0.00 in 0 W/m2
20:32 41.4 °F 35.7 °F 30.40 in West 2.0 mph 4.0 mph 80 % 0.00 in 0 W/m2
20:37 41.2 °F 35.5 °F 30.40 in WNW 2.0 mph 6.0 mph 80 % 0.00 in 0 W/m2
20:42 41.0 °F 35.3 °F 30.40 in NW 2.0 mph 5.0 mph 80 % 0.00 in 0 W/m2
20:47 41.0 °F 35.6 °F 30.40 in NW 2.0 mph 5.0 mph 81 % 0.00 in 0 W/m2
20:52 41.2 °F 35.8 °F 30.40 in NW 1.0 mph 4.0 mph 81 % 0.00 in 0 W/m2
20:57 41.2 °F 35.8 °F 30.40 in WNW 2.0 mph 4.0 mph 81 % 0.00 in 0 W/m2
21:02 41.2 °F 35.8 °F 30.41 in WNW 1.0 mph 4.0 mph 81 % 0.00 in 0 W/m2
21:07 41.2 °F 35.5 °F 30.41 in NW 1.0 mph 5.0 mph 80 % 0.00 in 0 W/m2
21:12 41.2 °F 35.8 °F 30.40 in NW 1.0 mph 3.0 mph 81 % 0.00 in 0 W/m2
21:17 41.0 °F 35.6 °F 30.40 in NW 2.0 mph 4.0 mph 81 % 0.00 in 0 W/m2
21:22 40.8 °F 35.4 °F 30.41 in NW 1.0 mph 2.0 mph 81 % 0.00 in 0 W/m2
21:27 40.8 °F 35.4 °F 30.41 in Calm   2.0 mph 81 % 0.00 in 0 W/m2
21:32 40.6 °F 35.3 °F 30.41 in NW 2.0 mph 5.0 mph 81 % 0.00 in 0 W/m2
21:37 40.6 °F 35.3 °F 30.41 in NW 2.0 mph 6.0 mph 81 % 0.00 in 0 W/m2
21:42 40.6 °F 35.3 °F 30.41 in NW 2.0 mph 6.0 mph 81 % 0.00 in 0 W/m2
21:47 40.6 °F 35.3 °F 30.41 in NW 3.0 mph 5.0 mph 81 % 0.00 in 0 W/m2
21:52 40.6 °F 35.3 °F 30.41 in NW 3.0 mph 5.0 mph 81 % 0.00 in 0 W/m2
21:57 40.6 °F 35.3 °F 30.41 in NW 3.0 mph 7.0 mph 81 % 0.00 in 0 W/m2
22:02 40.6 °F 35.3 °F 30.41 in NW 3.0 mph 6.0 mph 81 % 0.00 in 0 W/m2
22:07 40.6 °F 35.3 °F 30.41 in NW 1.0 mph 3.0 mph 81 % 0.00 in 0 W/m2
22:12 40.6 °F 35.3 °F 30.42 in WNW 1.0 mph 4.0 mph 81 % 0.00 in 0 W/m2
22:22 40.3 °F 34.9 °F 30.41 in NW 1.0 mph 4.0 mph 81 % 0.00 in 0 W/m2
22:27 40.3 °F 34.9 °F 30.42 in NW 1.0 mph 4.0 mph 81 % 0.00 in 0 W/m2
22:32 40.1 °F 34.7 °F 30.42 in NW 1.0 mph 4.0 mph 81 % 0.00 in 0 W/m2
22:37 40.1 °F 34.7 °F 30.42 in NW 1.0 mph 4.0 mph 81 % 0.00 in 0 W/m2
22:42 39.9 °F 34.6 °F 30.42 in Calm   1.0 mph 81 % 0.00 in 0 W/m2
22:47 39.7 °F 34.4 °F 30.42 in Calm   2.0 mph 81 % 0.00 in 0 W/m2
22:52 39.6 °F 34.5 °F 30.42 in Calm   1.0 mph 82 % 0.00 in 0 W/m2
22:57 39.4 °F 34.3 °F 30.42 in NW 1.0 mph 3.0 mph 82 % 0.00 in 0 W/m2
23:02 39.4 °F 34.6 °F 30.42 in NW 1.0 mph 2.0 mph 83 % 0.00 in 0 W/m2
23:07 39.4 °F 34.6 °F 30.42 in NW 2.0 mph 5.0 mph 83 % 0.00 in 0 W/m2
23:12 39.4 °F 34.9 °F 30.42 in NW 1.0 mph 2.0 mph 84 % 0.00 in 0 W/m2
23:17 39.4 °F 34.9 °F 30.42 in Calm   2.0 mph 84 % 0.00 in 0 W/m2
23:22 39.4 °F 34.9 °F 30.42 in NW 1.0 mph 4.0 mph 84 % 0.00 in 0 W/m2
23:27 39.4 °F 34.9 °F 30.42 in NW 3.0 mph 6.0 mph 84 % 0.00 in 0 W/m2
23:32 39.6 °F 35.1 °F 30.42 in NW 3.0 mph 5.0 mph 84 % 0.00 in 0 W/m2
23:37 39.6 °F 35.1 °F 30.42 in NW 3.0 mph 6.0 mph 84 % 0.00 in 0 W/m2
23:39 39.6 °F 35.1 °F 30.42 in NW 3.0 mph 6.0 mph 84 % 0.00 in 0 W/m2
23:44 39.7 °F 35.3 °F 30.42 in NW 3.0 mph 6.0 mph 84 % 0.00 in 0 W/m2
23:49 39.7 °F 35.0 °F 30.42 in NW 3.0 mph 5.0 mph 83 % 0.00 in 0 W/m2
23:54 39.7 °F 35.0 °F 30.42 in NW 3.0 mph 6.0 mph 83 % 0.00 in 0 W/m2
23:59 39.9 °F 35.2 °F 30.42 in NW 3.0 mph 7.0 mph 83 % 0.00 in 0 W/m2
Delerius-Weather
Compliments of Weather Underground - 2 mb

Data updates at regular intervals.